sensor_id;sensor_type;location;lat;lon;timestamp;temperature;humidity
15819;DHT22;8010;53.986;12.106;2022-08-30T00:00:28;16.80;99.90
15819;DHT22;8010;53.986;12.106;2022-08-30T00:03:13;16.70;99.90
15819;DHT22;8010;53.986;12.106;2022-08-30T00:05:39;16.70;99.90
15819;DHT22;8010;53.986;12.106;2022-08-30T00:08:05;16.70;99.90
15819;DHT22;8010;53.986;12.106;2022-08-30T00:10:31;16.70;99.90
15819;DHT22;8010;53.986;12.106;2022-08-30T00:12:57;16.80;99.90
15819;DHT22;8010;53.986;12.106;2022-08-30T00:15:23;16.70;99.90
15819;DHT22;8010;53.986;12.106;2022-08-30T00:17:49;16.70;99.90
15819;DHT22;8010;53.986;12.106;2022-08-30T00:20:20;16.70;99.90
15819;DHT22;8010;53.986;12.106;2022-08-30T00:22:47;16.70;99.90
15819;DHT22;8010;53.986;12.106;2022-08-30T00:25:13;16.70;99.90
15819;DHT22;8010;53.986;12.106;2022-08-30T00:27:39;16.70;99.90
15819;DHT22;8010;53.986;12.106;2022-08-30T00:30:06;16.70;99.90
15819;DHT22;8010;53.986;12.106;2022-08-30T00:32:32;16.70;99.90
15819;DHT22;8010;53.986;12.106;2022-08-30T00:34:58;16.70;99.90
15819;DHT22;8010;53.986;12.106;2022-08-30T00:37:24;16.60;99.90
15819;DHT22;8010;53.986;12.106;2022-08-30T00:39:50;16.60;99.90
15819;DHT22;8010;53.986;12.106;2022-08-30T00:42:16;16.60;99.90
15819;DHT22;8010;53.986;12.106;2022-08-30T00:44:42;16.60;99.90
15819;DHT22;8010;53.986;12.106;2022-08-30T00:47:09;16.60;99.90
15819;DHT22;8010;53.986;12.106;2022-08-30T00:49:36;16.70;99.90
15819;DHT22;8010;53.986;12.106;2022-08-30T00:52:04;16.70;99.90
15819;DHT22;8010;53.986;12.106;2022-08-30T00:54:31;16.70;99.90
15819;DHT22;8010;53.986;12.106;2022-08-30T00:56:57;16.60;99.90
15819;DHT22;8010;53.986;12.106;2022-08-30T00:59:23;16.60;99.90
15819;DHT22;8010;53.986;12.106;2022-08-30T01:01:50;16.60;99.90
15819;DHT22;8010;53.986;12.106;2022-08-30T01:04:16;16.70;99.90
15819;DHT22;8010;53.986;12.106;2022-08-30T01:06:44;16.70;99.90
15819;DHT22;8010;53.986;12.106;2022-08-30T01:09:10;16.70;99.90
15819;DHT22;8010;53.986;12.106;2022-08-30T01:11:38;16.70;99.90
15819;DHT22;8010;53.986;12.106;2022-08-30T01:14:07;16.70;99.90
15819;DHT22;8010;53.986;12.106;2022-08-30T01:16:34;16.70;99.90
15819;DHT22;8010;53.986;12.106;2022-08-30T01:19:00;16.70;99.90
15819;DHT22;8010;53.986;12.106;2022-08-30T01:21:35;16.70;99.90
15819;DHT22;8010;53.986;12.106;2022-08-30T01:24:06;16.70;99.90
15819;DHT22;8010;53.986;12.106;2022-08-30T01:26:33;16.60;99.90
15819;DHT22;8010;53.986;12.106;2022-08-30T01:29:04;16.60;99.90
15819;DHT22;8010;53.986;12.106;2022-08-30T01:31:31;16.60;99.90
15819;DHT22;8010;53.986;12.106;2022-08-30T01:34:00;16.70;99.90
15819;DHT22;8010;53.986;12.106;2022-08-30T01:36:26;16.60;99.90
15819;DHT22;8010;53.986;12.106;2022-08-30T01:38:54;16.60;99.90
15819;DHT22;8010;53.986;12.106;2022-08-30T01:43:53;16.60;99.90
15819;DHT22;8010;53.986;12.106;2022-08-30T01:46:22;16.60;99.90
15819;DHT22;8010;53.986;12.106;2022-08-30T01:48:49;17.70;99.90
15819;DHT22;8010;53.986;12.106;2022-08-30T01:51:16;16.60;99.90
15819;DHT22;8010;53.986;12.106;2022-08-30T01:53:43;16.50;99.90
15819;DHT22;8010;53.986;12.106;2022-08-30T01:56:10;16.50;99.90
15819;DHT22;8010;53.986;12.106;2022-08-30T01:58:37;16.50;99.90
15819;DHT22;8010;53.986;12.106;2022-08-30T02:01:04;16.50;99.90
15819;DHT22;8010;53.986;12.106;2022-08-30T02:03:30;16.50;99.90
15819;DHT22;8010;53.986;12.106;2022-08-30T02:06:08;16.50;99.90
15819;DHT22;8010;53.986;12.106;2022-08-30T02:08:34;16.50;99.90
15819;DHT22;8010;53.986;12.106;2022-08-30T02:11:00;16.50;99.90
15819;DHT22;8010;53.986;12.106;2022-08-30T02:13:26;16.50;99.90
15819;DHT22;8010;53.986;12.106;2022-08-30T02:15:52;16.70;99.90
15819;DHT22;8010;53.986;12.106;2022-08-30T02:18:22;16.50;99.90
15819;DHT22;8010;53.986;12.106;2022-08-30T02:20:48;16.50;99.90
15819;DHT22;8010;53.986;12.106;2022-08-30T02:23:13;16.50;99.90
15819;DHT22;8010;53.986;12.106;2022-08-30T02:25:39;16.50;99.90
15819;DHT22;8010;53.986;12.106;2022-08-30T02:28:06;16.50;99.90
15819;DHT22;8010;53.986;12.106;2022-08-30T02:30:32;16.40;99.90
15819;DHT22;8010;53.986;12.106;2022-08-30T02:32:59;16.40;99.90
15819;DHT22;8010;53.986;12.106;2022-08-30T02:35:24;16.40;99.90
15819;DHT22;8010;53.986;12.106;2022-08-30T02:37:50;16.40;99.90
15819;DHT22;8010;53.986;12.106;2022-08-30T02:40:16;16.40;99.90
15819;DHT22;8010;53.986;12.106;2022-08-30T02:42:42;16.40;99.90
15819;DHT22;8010;53.986;12.106;2022-08-30T02:45:08;16.40;99.90
15819;DHT22;8010;53.986;12.106;2022-08-30T02:47:35;16.40;99.90
15819;DHT22;8010;53.986;12.106;2022-08-30T02:50:05;16.40;99.90
15819;DHT22;8010;53.986;12.106;2022-08-30T02:52:31;16.40;99.90
15819;DHT22;8010;53.986;12.106;2022-08-30T02:54:57;16.40;99.90
15819;DHT22;8010;53.986;12.106;2022-08-30T02:57:22;16.40;99.90
15819;DHT22;8010;53.986;12.106;2022-08-30T02:59:48;16.40;99.90
15819;DHT22;8010;53.986;12.106;2022-08-30T03:02:15;16.40;99.90
15819;DHT22;8010;53.986;12.106;2022-08-30T03:04:41;16.40;99.90
15819;DHT22;8010;53.986;12.106;2022-08-30T03:07:09;16.40;99.90
15819;DHT22;8010;53.986;12.106;2022-08-30T03:09:35;16.40;99.90
15819;DHT22;8010;53.986;12.106;2022-08-30T03:12:01;16.40;99.90
15819;DHT22;8010;53.986;12.106;2022-08-30T03:14:27;16.40;99.90
15819;DHT22;8010;53.986;12.106;2022-08-30T03:16:53;16.40;99.90
15819;DHT22;8010;53.986;12.106;2022-08-30T03:19:19;16.40;99.90
15819;DHT22;8010;53.986;12.106;2022-08-30T03:21:45;16.40;99.90
15819;DHT22;8010;53.986;12.106;2022-08-30T03:24:11;16.40;99.90
15819;DHT22;8010;53.986;12.106;2022-08-30T03:26:38;16.40;99.90
15819;DHT22;8010;53.986;12.106;2022-08-30T03:29:03;16.40;99.90
15819;DHT22;8010;53.986;12.106;2022-08-30T03:31:29;16.30;99.90
15819;DHT22;8010;53.986;12.106;2022-08-30T03:33:55;16.30;99.90
15819;DHT22;8010;53.986;12.106;2022-08-30T03:36:20;16.30;99.90
15819;DHT22;8010;53.986;12.106;2022-08-30T03:38:46;16.30;99.90
15819;DHT22;8010;53.986;12.106;2022-08-30T03:41:11;16.30;99.90
15819;DHT22;8010;53.986;12.106;2022-08-30T03:43:37;16.30;99.90
15819;DHT22;8010;53.986;12.106;2022-08-30T03:46:03;16.30;99.90
15819;DHT22;8010;53.986;12.106;2022-08-30T03:48:29;16.30;99.90
15819;DHT22;8010;53.986;12.106;2022-08-30T03:50:55;16.30;99.90
15819;DHT22;8010;53.986;12.106;2022-08-30T03:53:21;16.30;99.90
15819;DHT22;8010;53.986;12.106;2022-08-30T03:55:47;16.30;99.90
15819;DHT22;8010;53.986;12.106;2022-08-30T03:58:13;16.30;99.90
15819;DHT22;8010;53.986;12.106;2022-08-30T04:00:38;16.20;99.90
15819;DHT22;8010;53.986;12.106;2022-08-30T04:03:04;16.20;99.90
15819;DHT22;8010;53.986;12.106;2022-08-30T04:05:30;16.30;99.90
15819;DHT22;8010;53.986;12.106;2022-08-30T04:07:55;16.20;99.90
15819;DHT22;8010;53.986;12.106;2022-08-30T04:10:21;16.30;99.90
15819;DHT22;8010;53.986;12.106;2022-08-30T04:12:48;16.20;99.90
15819;DHT22;8010;53.986;12.106;2022-08-30T04:15:15;16.20;99.90
15819;DHT22;8010;53.986;12.106;2022-08-30T04:17:42;16.20;99.90
15819;DHT22;8010;53.986;12.106;2022-08-30T04:20:08;16.30;99.90
15819;DHT22;8010;53.986;12.106;2022-08-30T04:22:33;16.30;99.90
15819;DHT22;8010;53.986;12.106;2022-08-30T04:24:59;16.30;99.90
15819;DHT22;8010;53.986;12.106;2022-08-30T04:27:24;16.20;99.90
15819;DHT22;8010;53.986;12.106;2022-08-30T04:29:50;16.20;99.90
15819;DHT22;8010;53.986;12.106;2022-08-30T04:32:16;16.20;99.90
15819;DHT22;8010;53.986;12.106;2022-08-30T04:34:42;16.20;99.90
15819;DHT22;8010;53.986;12.106;2022-08-30T04:37:07;16.30;99.90
15819;DHT22;8010;53.986;12.106;2022-08-30T04:39:33;16.30;99.90
15819;DHT22;8010;53.986;12.106;2022-08-30T04:41:59;16.30;99.90
15819;DHT22;8010;53.986;12.106;2022-08-30T04:44:25;16.30;99.90
15819;DHT22;8010;53.986;12.106;2022-08-30T04:46:52;17.50;99.90
15819;DHT22;8010;53.986;12.106;2022-08-30T04:49:18;16.30;99.90
15819;DHT22;8010;53.986;12.106;2022-08-30T04:51:44;16.30;99.90
15819;DHT22;8010;53.986;12.106;2022-08-30T04:54:10;16.30;99.90
15819;DHT22;8010;53.986;12.106;2022-08-30T04:56:35;16.30;99.90
15819;DHT22;8010;53.986;12.106;2022-08-30T04:59:01;16.30;99.90
15819;DHT22;8010;53.986;12.106;2022-08-30T05:01:30;16.60;99.90
15819;DHT22;8010;53.986;12.106;2022-08-30T05:03:57;16.40;99.90
15819;DHT22;8010;53.986;12.106;2022-08-30T05:06:24;16.40;99.90
15819;DHT22;8010;53.986;12.106;2022-08-30T05:08:52;16.40;99.90
15819;DHT22;8010;53.986;12.106;2022-08-30T05:11:19;16.90;99.90
15819;DHT22;8010;53.986;12.106;2022-08-30T05:13:45;16.40;99.90
15819;DHT22;8010;53.986;12.106;2022-08-30T05:16:12;16.40;99.90
15819;DHT22;8010;53.986;12.106;2022-08-30T05:18:46;16.50;99.90
15819;DHT22;8010;53.986;12.106;2022-08-30T05:21:15;16.50;99.90
15819;DHT22;8010;53.986;12.106;2022-08-30T05:23:42;16.50;99.90
15819;DHT22;8010;53.986;12.106;2022-08-30T05:26:14;16.50;99.90
15819;DHT22;8010;53.986;12.106;2022-08-30T05:28:40;16.50;99.90
15819;DHT22;8010;53.986;12.106;2022-08-30T05:31:33;16.50;99.90
15819;DHT22;8010;53.986;12.106;2022-08-30T05:33:59;16.70;99.90
15819;DHT22;8010;53.986;12.106;2022-08-30T05:36:28;16.50;99.90
15819;DHT22;8010;53.986;12.106;2022-08-30T05:38:54;16.50;99.90
15819;DHT22;8010;53.986;12.106;2022-08-30T05:41:22;16.50;99.90
15819;DHT22;8010;53.986;12.106;2022-08-30T05:43:51;16.60;99.90
15819;DHT22;8010;53.986;12.106;2022-08-30T05:46:17;16.60;99.90
15819;DHT22;8010;53.986;12.106;2022-08-30T05:48:44;16.70;99.90
15819;DHT22;8010;53.986;12.106;2022-08-30T05:51:12;16.70;99.90
15819;DHT22;8010;53.986;12.106;2022-08-30T05:53:39;16.80;99.90
15819;DHT22;8010;53.986;12.106;2022-08-30T05:56:07;16.80;99.90
15819;DHT22;8010;53.986;12.106;2022-08-30T05:58:33;16.90;99.90
15819;DHT22;8010;53.986;12.106;2022-08-30T06:01:00;16.90;99.90
15819;DHT22;8010;53.986;12.106;2022-08-30T06:03:26;17.00;99.90
15819;DHT22;8010;53.986;12.106;2022-08-30T06:05:52;17.10;99.90
15819;DHT22;8010;53.986;12.106;2022-08-30T06:08:18;17.10;99.90
15819;DHT22;8010;53.986;12.106;2022-08-30T06:10:43;17.20;99.90
15819;DHT22;8010;53.986;12.106;2022-08-30T06:13:09;17.20;99.90
15819;DHT22;8010;53.986;12.106;2022-08-30T06:15:35;17.20;99.90
15819;DHT22;8010;53.986;12.106;2022-08-30T06:18:01;17.30;99.90
15819;DHT22;8010;53.986;12.106;2022-08-30T06:20:27;17.30;99.90
15819;DHT22;8010;53.986;12.106;2022-08-30T06:22:52;17.30;99.90
15819;DHT22;8010;53.986;12.106;2022-08-30T06:25:18;17.30;99.90
15819;DHT22;8010;53.986;12.106;2022-08-30T06:27:43;17.50;99.90
15819;DHT22;8010;53.986;12.106;2022-08-30T06:30:09;17.50;99.90
15819;DHT22;8010;53.986;12.106;2022-08-30T06:32:37;17.60;99.90
15819;DHT22;8010;53.986;12.106;2022-08-30T06:35:04;17.60;99.90
15819;DHT22;8010;53.986;12.106;2022-08-30T06:37:31;17.70;99.90
15819;DHT22;8010;53.986;12.106;2022-08-30T06:39:58;17.80;99.90
15819;DHT22;8010;53.986;12.106;2022-08-30T06:42:25;17.80;99.90
15819;DHT22;8010;53.986;12.106;2022-08-30T06:44:57;18.00;99.90
15819;DHT22;8010;53.986;12.106;2022-08-30T06:47:22;18.10;99.90
15819;DHT22;8010;53.986;12.106;2022-08-30T06:49:48;18.20;99.90
15819;DHT22;8010;53.986;12.106;2022-08-30T06:52:14;18.30;99.90
15819;DHT22;8010;53.986;12.106;2022-08-30T06:54:39;18.40;99.90
15819;DHT22;8010;53.986;12.106;2022-08-30T06:57:05;18.60;99.90
15819;DHT22;8010;53.986;12.106;2022-08-30T06:59:30;18.60;99.90
15819;DHT22;8010;53.986;12.106;2022-08-30T07:01:56;18.70;99.90
15819;DHT22;8010;53.986;12.106;2022-08-30T07:04:23;18.80;99.90
15819;DHT22;8010;53.986;12.106;2022-08-30T07:06:48;18.80;99.90
15819;DHT22;8010;53.986;12.106;2022-08-30T07:09:14;18.90;99.90
15819;DHT22;8010;53.986;12.106;2022-08-30T07:11:39;19.00;99.90
15819;DHT22;8010;53.986;12.106;2022-08-30T07:14:05;19.70;99.90
15819;DHT22;8010;53.986;12.106;2022-08-30T07:16:32;19.20;99.90
15819;DHT22;8010;53.986;12.106;2022-08-30T07:18:58;19.30;99.90
15819;DHT22;8010;53.986;12.106;2022-08-30T07:21:33;19.50;99.90
15819;DHT22;8010;53.986;12.106;2022-08-30T07:23:59;19.60;99.90
15819;DHT22;8010;53.986;12.106;2022-08-30T07:26:37;19.60;99.90
15819;DHT22;8010;53.986;12.106;2022-08-30T07:29:04;19.80;99.90
15819;DHT22;8010;53.986;12.106;2022-08-30T07:31:30;19.80;99.90
15819;DHT22;8010;53.986;12.106;2022-08-30T07:33:57;19.80;99.90
15819;DHT22;8010;53.986;12.106;2022-08-30T07:36:23;19.80;99.90
15819;DHT22;8010;53.986;12.106;2022-08-30T07:38:50;21.00;99.90
15819;DHT22;8010;53.986;12.106;2022-08-30T07:41:30;20.10;99.90
15819;DHT22;8010;53.986;12.106;2022-08-30T07:43:57;20.20;99.90
15819;DHT22;8010;53.986;12.106;2022-08-30T07:46:24;20.40;99.90
15819;DHT22;8010;53.986;12.106;2022-08-30T07:48:50;20.60;99.90
15819;DHT22;8010;53.986;12.106;2022-08-30T07:51:19;20.70;99.90
15819;DHT22;8010;53.986;12.106;2022-08-30T07:53:45;20.80;99.90
15819;DHT22;8010;53.986;12.106;2022-08-30T07:56:11;21.00;99.90
15819;DHT22;8010;53.986;12.106;2022-08-30T07:58:37;21.10;99.90
15819;DHT22;8010;53.986;12.106;2022-08-30T08:01:05;21.10;99.90
15819;DHT22;8010;53.986;12.106;2022-08-30T08:03:31;21.10;99.90
15819;DHT22;8010;53.986;12.106;2022-08-30T08:06:00;21.20;99.90
15819;DHT22;8010;53.986;12.106;2022-08-30T08:08:26;21.40;99.90
15819;DHT22;8010;53.986;12.106;2022-08-30T08:10:51;22.50;99.90
15819;DHT22;8010;53.986;12.106;2022-08-30T08:13:17;21.60;99.90
15819;DHT22;8010;53.986;12.106;2022-08-30T08:15:43;21.70;99.90
15819;DHT22;8010;53.986;12.106;2022-08-30T08:18:08;21.90;99.90
15819;DHT22;8010;53.986;12.106;2022-08-30T08:20:34;22.10;99.90
15819;DHT22;8010;53.986;12.106;2022-08-30T08:23:00;22.50;99.90
15819;DHT22;8010;53.986;12.106;2022-08-30T08:25:26;22.60;99.90
15819;DHT22;8010;53.986;12.106;2022-08-30T08:27:52;22.80;99.90
15819;DHT22;8010;53.986;12.106;2022-08-30T08:30:19;23.00;99.90
15819;DHT22;8010;53.986;12.106;2022-08-30T08:32:46;23.20;99.90
15819;DHT22;8010;53.986;12.106;2022-08-30T08:35:12;23.40;99.90
15819;DHT22;8010;53.986;12.106;2022-08-30T08:37:38;23.50;99.90
15819;DHT22;8010;53.986;12.106;2022-08-30T08:40:05;23.60;99.90
15819;DHT22;8010;53.986;12.106;2022-08-30T08:42:59;23.50;99.90
15819;DHT22;8010;53.986;12.106;2022-08-30T08:45:55;23.50;99.90
15819;DHT22;8010;53.986;12.106;2022-08-30T08:48:38;23.60;99.90
15819;DHT22;8010;53.986;12.106;2022-08-30T08:51:08;23.60;99.90
15819;DHT22;8010;53.986;12.106;2022-08-30T08:53:59;23.60;99.90
15819;DHT22;8010;53.986;12.106;2022-08-30T08:56:25;24.70;99.90
15819;DHT22;8010;53.986;12.106;2022-08-30T08:58:55;23.80;99.90
15819;DHT22;8010;53.986;12.106;2022-08-30T09:01:25;24.00;99.90
15819;DHT22;8010;53.986;12.106;2022-08-30T09:03:51;24.10;99.90
15819;DHT22;8010;53.986;12.106;2022-08-30T09:09:13;24.20;99.90
15819;DHT22;8010;53.986;12.106;2022-08-30T09:11:40;24.30;99.90
15819;DHT22;8010;53.986;12.106;2022-08-30T09:14:13;24.60;99.90
15819;DHT22;8010;53.986;12.106;2022-08-30T09:16:59;24.70;99.90
15819;DHT22;8010;53.986;12.106;2022-08-30T09:22:31;24.20;99.90
15819;DHT22;8010;53.986;12.106;2022-08-30T09:25:07;24.00;99.90
15819;DHT22;8010;53.986;12.106;2022-08-30T09:27:36;24.20;99.90
15819;DHT22;8010;53.986;12.106;2022-08-30T09:30:27;24.40;99.90
15819;DHT22;8010;53.986;12.106;2022-08-30T09:33:04;24.60;99.90
15819;DHT22;8010;53.986;12.106;2022-08-30T09:38:29;25.00;99.90
15819;DHT22;8010;53.986;12.106;2022-08-30T09:41:01;25.30;99.90
15819;DHT22;8010;53.986;12.106;2022-08-30T09:43:33;25.50;99.90
15819;DHT22;8010;53.986;12.106;2022-08-30T09:48:31;25.70;99.90
15819;DHT22;8010;53.986;12.106;2022-08-30T09:53:42;25.90;99.90
15819;DHT22;8010;53.986;12.106;2022-08-30T09:56:09;26.00;99.90
15819;DHT22;8010;53.986;12.106;2022-08-30T10:01:42;26.10;99.90
15819;DHT22;8010;53.986;12.106;2022-08-30T10:06:49;28.00;99.90
15819;DHT22;8010;53.986;12.106;2022-08-30T10:17:23;26.40;99.90
15819;DHT22;8010;53.986;12.106;2022-08-30T10:20:02;26.50;99.90
15819;DHT22;8010;53.986;12.106;2022-08-30T10:22:35;26.70;99.90
15819;DHT22;8010;53.986;12.106;2022-08-30T10:25:10;26.60;99.90
15819;DHT22;8010;53.986;12.106;2022-08-30T10:27:46;26.60;99.90
15819;DHT22;8010;53.986;12.106;2022-08-30T10:30:15;25.90;99.90
15819;DHT22;8010;53.986;12.106;2022-08-30T10:33:07;25.80;99.90
15819;DHT22;8010;53.986;12.106;2022-08-30T10:35:46;25.90;99.90
15819;DHT22;8010;53.986;12.106;2022-08-30T10:38:28;25.80;99.90
15819;DHT22;8010;53.986;12.106;2022-08-30T10:44:02;25.60;99.90
15819;DHT22;8010;53.986;12.106;2022-08-30T10:49:20;25.70;99.90
15819;DHT22;8010;53.986;12.106;2022-08-30T10:54:35;26.10;99.90
15819;DHT22;8010;53.986;12.106;2022-08-30T10:57:02;26.30;99.90
15819;DHT22;8010;53.986;12.106;2022-08-30T10:59:28;26.40;99.90
15819;DHT22;8010;53.986;12.106;2022-08-30T11:02:17;26.40;99.90
15819;DHT22;8010;53.986;12.106;2022-08-30T11:15:16;26.60;99.90
15819;DHT22;8010;53.986;12.106;2022-08-30T11:17:57;26.30;99.90
15819;DHT22;8010;53.986;12.106;2022-08-30T11:20:46;26.40;99.90
15819;DHT22;8010;53.986;12.106;2022-08-30T11:25:49;27.10;99.90
15819;DHT22;8010;53.986;12.106;2022-08-30T11:33:50;27.20;99.90
15819;DHT22;8010;53.986;12.106;2022-08-30T11:41:45;27.80;99.90
15819;DHT22;8010;53.986;12.106;2022-08-30T11:46:55;28.00;99.90
15819;DHT22;8010;53.986;12.106;2022-08-30T11:49:42;28.30;99.90
15819;DHT22;8010;53.986;12.106;2022-08-30T11:52:32;28.10;99.90
15819;DHT22;8010;53.986;12.106;2022-08-30T12:03:37;29.00;99.90
15819;DHT22;8010;53.986;12.106;2022-08-30T12:06:05;29.20;99.90
15819;DHT22;8010;53.986;12.106;2022-08-30T12:13:56;28.60;99.90
15819;DHT22;8010;53.986;12.106;2022-08-30T12:18:58;28.40;99.90
15819;DHT22;8010;53.986;12.106;2022-08-30T12:21:34;28.30;99.90
15819;DHT22;8010;53.986;12.106;2022-08-30T12:24:12;28.50;99.90
15819;DHT22;8010;53.986;12.106;2022-08-30T12:26:42;28.20;99.90
15819;DHT22;8010;53.986;12.106;2022-08-30T12:29:29;28.00;99.90
15819;DHT22;8010;53.986;12.106;2022-08-30T12:32:04;27.60;99.90
15819;DHT22;8010;53.986;12.106;2022-08-30T12:34:34;27.00;99.90
15819;DHT22;8010;53.986;12.106;2022-08-30T12:37:06;26.70;99.90
15819;DHT22;8010;53.986;12.106;2022-08-30T12:39:39;26.70;99.90
15819;DHT22;8010;53.986;12.106;2022-08-30T12:44:36;26.00;99.90
15819;DHT22;8010;53.986;12.106;2022-08-30T12:47:04;27.50;99.90
15819;DHT22;8010;53.986;12.106;2022-08-30T12:49:34;27.00;99.90
15819;DHT22;8010;53.986;12.106;2022-08-30T12:54:54;26.80;99.90
15819;DHT22;8010;53.986;12.106;2022-08-30T12:57:37;26.60;99.90
15819;DHT22;8010;53.986;12.106;2022-08-30T13:00:06;26.70;99.90
15819;DHT22;8010;53.986;12.106;2022-08-30T13:02:54;26.80;99.90
15819;DHT22;8010;53.986;12.106;2022-08-30T13:05:42;26.90;99.90
15819;DHT22;8010;53.986;12.106;2022-08-30T13:08:19;28.60;99.90
15819;DHT22;8010;53.986;12.106;2022-08-30T13:10:55;27.20;99.90
15819;DHT22;8010;53.986;12.106;2022-08-30T13:13:31;27.00;99.90
15819;DHT22;8010;53.986;12.106;2022-08-30T13:16:07;27.00;99.90
15819;DHT22;8010;53.986;12.106;2022-08-30T13:18:33;26.80;99.90
15819;DHT22;8010;53.986;12.106;2022-08-30T13:23:54;26.60;99.90
15819;DHT22;8010;53.986;12.106;2022-08-30T13:26:20;26.30;99.90
15819;DHT22;8010;53.986;12.106;2022-08-30T13:31:12;26.00;99.90
15819;DHT22;8010;53.986;12.106;2022-08-30T13:33:38;26.00;99.90
15819;DHT22;8010;53.986;12.106;2022-08-30T13:36:03;26.10;99.90
15819;DHT22;8010;53.986;12.106;2022-08-30T13:38:29;26.50;99.90
15819;DHT22;8010;53.986;12.106;2022-08-30T13:40:54;26.20;99.90
15819;DHT22;8010;53.986;12.106;2022-08-30T13:43:20;26.40;99.90
15819;DHT22;8010;53.986;12.106;2022-08-30T13:45:46;26.60;99.90
15819;DHT22;8010;53.986;12.106;2022-08-30T13:48:13;26.80;99.90
15819;DHT22;8010;53.986;12.106;2022-08-30T13:50:39;27.00;99.90
15819;DHT22;8010;53.986;12.106;2022-08-30T13:53:05;27.70;99.90
15819;DHT22;8010;53.986;12.106;2022-08-30T13:55:33;28.30;99.90
15819;DHT22;8010;53.986;12.106;2022-08-30T13:57:59;27.80;99.90
15819;DHT22;8010;53.986;12.106;2022-08-30T14:00:25;27.60;99.90
15819;DHT22;8010;53.986;12.106;2022-08-30T14:02:51;27.80;99.90
15819;DHT22;8010;53.986;12.106;2022-08-30T14:05:34;28.50;99.90
15819;DHT22;8010;53.986;12.106;2022-08-30T14:08:00;28.00;99.90
15819;DHT22;8010;53.986;12.106;2022-08-30T14:10:28;28.20;99.90
15819;DHT22;8010;53.986;12.106;2022-08-30T14:12:54;28.30;99.90
15819;DHT22;8010;53.986;12.106;2022-08-30T14:15:19;29.80;99.90
15819;DHT22;8010;53.986;12.106;2022-08-30T14:17:45;28.20;99.90
15819;DHT22;8010;53.986;12.106;2022-08-30T14:20:11;28.60;99.90
15819;DHT22;8010;53.986;12.106;2022-08-30T14:22:37;27.80;99.90
15819;DHT22;8010;53.986;12.106;2022-08-30T14:25:04;28.50;99.90
15819;DHT22;8010;53.986;12.106;2022-08-30T14:27:30;28.40;99.90
15819;DHT22;8010;53.986;12.106;2022-08-30T14:29:56;28.50;99.90
15819;DHT22;8010;53.986;12.106;2022-08-30T14:32:22;29.30;99.90
15819;DHT22;8010;53.986;12.106;2022-08-30T14:34:48;28.00;99.90
15819;DHT22;8010;53.986;12.106;2022-08-30T14:37:13;29.70;99.90
15819;DHT22;8010;53.986;12.106;2022-08-30T14:39:39;28.00;99.90
15819;DHT22;8010;53.986;12.106;2022-08-30T14:42:05;27.70;99.90
15819;DHT22;8010;53.986;12.106;2022-08-30T14:44:31;27.80;99.90
15819;DHT22;8010;53.986;12.106;2022-08-30T14:46:57;27.70;99.90
15819;DHT22;8010;53.986;12.106;2022-08-30T14:49:23;29.00;99.90
15819;DHT22;8010;53.986;12.106;2022-08-30T14:51:49;27.60;99.90
15819;DHT22;8010;53.986;12.106;2022-08-30T14:54:18;27.60;99.90
15819;DHT22;8010;53.986;12.106;2022-08-30T14:56:44;28.80;99.90
15819;DHT22;8010;53.986;12.106;2022-08-30T14:59:09;26.90;99.90
15819;DHT22;8010;53.986;12.106;2022-08-30T15:01:36;27.70;99.90
15819;DHT22;8010;53.986;12.106;2022-08-30T15:04:03;28.20;99.90
15819;DHT22;8010;53.986;12.106;2022-08-30T15:06:29;27.80;99.90
15819;DHT22;8010;53.986;12.106;2022-08-30T15:08:55;27.70;99.90
15819;DHT22;8010;53.986;12.106;2022-08-30T15:11:21;27.70;99.90
15819;DHT22;8010;53.986;12.106;2022-08-30T15:13:47;27.70;99.90
15819;DHT22;8010;53.986;12.106;2022-08-30T15:16:28;27.80;99.90
15819;DHT22;8010;53.986;12.106;2022-08-30T15:18:55;27.60;99.90
15819;DHT22;8010;53.986;12.106;2022-08-30T15:21:26;27.50;99.90
15819;DHT22;8010;53.986;12.106;2022-08-30T15:23:52;27.60;99.90
15819;DHT22;8010;53.986;12.106;2022-08-30T15:26:18;28.00;99.90
15819;DHT22;8010;53.986;12.106;2022-08-30T15:28:43;27.70;99.90
15819;DHT22;8010;53.986;12.106;2022-08-30T15:31:09;27.50;99.90
15819;DHT22;8010;53.986;12.106;2022-08-30T15:33:36;27.30;99.90
15819;DHT22;8010;53.986;12.106;2022-08-30T15:36:02;27.20;99.90
15819;DHT22;8010;53.986;12.106;2022-08-30T15:38:29;27.20;99.90
15819;DHT22;8010;53.986;12.106;2022-08-30T15:40:55;27.10;99.90
15819;DHT22;8010;53.986;12.106;2022-08-30T15:43:24;27.00;99.90
15819;DHT22;8010;53.986;12.106;2022-08-30T15:45:50;26.90;99.90
15819;DHT22;8010;53.986;12.106;2022-08-30T15:48:17;26.80;99.90
15819;DHT22;8010;53.986;12.106;2022-08-30T15:50:43;27.70;99.90
15819;DHT22;8010;53.986;12.106;2022-08-30T15:53:08;26.70;99.90
15819;DHT22;8010;53.986;12.106;2022-08-30T15:55:34;26.70;99.90
15819;DHT22;8010;53.986;12.106;2022-08-30T15:57:59;26.20;99.90
15819;DHT22;8010;53.986;12.106;2022-08-30T16:00:25;25.80;99.90
15819;DHT22;8010;53.986;12.106;2022-08-30T16:02:51;25.10;99.90
15819;DHT22;8010;53.986;12.106;2022-08-30T16:05:18;26.90;99.90
15819;DHT22;8010;53.986;12.106;2022-08-30T16:07:44;25.00;99.90
15819;DHT22;8010;53.986;12.106;2022-08-30T16:10:12;24.60;99.90
15819;DHT22;8010;53.986;12.106;2022-08-30T16:12:38;24.40;99.90
15819;DHT22;8010;53.986;12.106;2022-08-30T16:15:04;23.90;99.90
15819;DHT22;8010;53.986;12.106;2022-08-30T16:17:29;23.80;99.90
15819;DHT22;8010;53.986;12.106;2022-08-30T16:19:55;23.60;99.90
15819;DHT22;8010;53.986;12.106;2022-08-30T16:22:20;23.30;99.90
15819;DHT22;8010;53.986;12.106;2022-08-30T16:24:47;23.10;99.90
15819;DHT22;8010;53.986;12.106;2022-08-30T16:27:13;23.00;99.90
15819;DHT22;8010;53.986;12.106;2022-08-30T16:29:38;22.70;99.90
15819;DHT22;8010;53.986;12.106;2022-08-30T16:32:04;22.60;99.90
15819;DHT22;8010;53.986;12.106;2022-08-30T16:34:30;22.50;99.90
15819;DHT22;8010;53.986;12.106;2022-08-30T16:36:56;22.30;99.90
15819;DHT22;8010;53.986;12.106;2022-08-30T16:39:21;22.20;99.90
15819;DHT22;8010;53.986;12.106;2022-08-30T16:41:47;22.00;99.90
15819;DHT22;8010;53.986;12.106;2022-08-30T16:44:13;21.80;99.90
15819;DHT22;8010;53.986;12.106;2022-08-30T16:46:39;21.60;99.90
15819;DHT22;8010;53.986;12.106;2022-08-30T16:49:05;21.50;99.90
15819;DHT22;8010;53.986;12.106;2022-08-30T16:51:32;21.30;99.90
15819;DHT22;8010;53.986;12.106;2022-08-30T16:54:01;21.60;99.90
15819;DHT22;8010;53.986;12.106;2022-08-30T16:56:29;21.50;99.90
15819;DHT22;8010;53.986;12.106;2022-08-30T16:58:55;21.00;99.90
15819;DHT22;8010;53.986;12.106;2022-08-30T17:01:22;20.80;99.90
15819;DHT22;8010;53.986;12.106;2022-08-30T17:03:48;20.70;99.90
15819;DHT22;8010;53.986;12.106;2022-08-30T17:06:14;20.60;99.90
15819;DHT22;8010;53.986;12.106;2022-08-30T17:08:39;20.50;99.90